sensor_id;sensor_type;location;lat;lon;timestamp;pressure;altitude;pressure_sealevel;temperature;humidity
52469;BME280;38381;53.688;10.776;2022-09-09T00:02:28;100521.56;;;14.49;99.12
52469;BME280;38381;53.688;10.776;2022-09-09T00:07:52;100527.00;;;14.31;100.00
52469;BME280;38381;53.688;10.776;2022-09-09T00:23:35;100515.50;;;14.47;100.00
52469;BME280;38381;53.688;10.776;2022-09-09T00:29:05;100514.72;;;14.39;100.00
52469;BME280;38381;53.688;10.776;2022-09-09T00:34:20;100512.22;;;14.31;100.00
52469;BME280;38381;53.688;10.776;2022-09-09T00:39:30;100514.63;;;14.48;99.03
52469;BME280;38381;53.688;10.776;2022-09-09T00:44:36;100506.75;;;14.51;99.02
52469;BME280;38381;53.688;10.776;2022-09-09T00:49:53;100503.59;;;14.27;100.00
52469;BME280;38381;53.688;10.776;2022-09-09T00:55:05;100507.13;;;14.23;100.00
52469;BME280;38381;53.688;10.776;2022-09-09T01:10:43;100493.25;;;14.21;100.00
52469;BME280;38381;53.688;10.776;2022-09-09T01:15:48;100489.97;;;14.02;100.00
52469;BME280;38381;53.688;10.776;2022-09-09T01:20:58;100489.94;;;14.05;100.00
52469;BME280;38381;53.688;10.776;2022-09-09T01:31:20;100502.00;;;14.13;100.00
52469;BME280;38381;53.688;10.776;2022-09-09T01:36:33;100495.97;;;14.11;100.00
52469;BME280;38381;53.688;10.776;2022-09-09T01:41:38;100483.88;;;14.05;100.00
52469;BME280;38381;53.688;10.776;2022-09-09T01:46:38;100471.84;;;13.93;100.00
52469;BME280;38381;53.688;10.776;2022-09-09T01:51:39;100476.84;;;14.10;100.00
52469;BME280;38381;53.688;10.776;2022-09-09T02:02:24;100488.09;;;14.14;100.00
52469;BME280;38381;53.688;10.776;2022-09-09T02:07:42;100489.88;;;14.13;100.00
52469;BME280;38381;53.688;10.776;2022-09-09T02:13:11;100499.53;;;14.05;100.00
52469;BME280;38381;53.688;10.776;2022-09-09T02:18:10;100497.75;;;14.07;100.00
52469;BME280;38381;53.688;10.776;2022-09-09T02:23:14;100496.72;;;14.19;100.00
52469;BME280;38381;53.688;10.776;2022-09-09T02:28:16;100497.84;;;13.99;100.00
52469;BME280;38381;53.688;10.776;2022-09-09T02:33:17;100501.28;;;14.03;100.00
52469;BME280;38381;53.688;10.776;2022-09-09T02:38:19;100500.44;;;14.01;100.00
52469;BME280;38381;53.688;10.776;2022-09-09T02:43:22;100513.56;;;13.92;100.00
52469;BME280;38381;53.688;10.776;2022-09-09T02:59:04;100502.97;;;14.07;100.00
52469;BME280;38381;53.688;10.776;2022-09-09T03:04:04;100502.22;;;13.96;100.00
52469;BME280;38381;53.688;10.776;2022-09-09T03:09:05;100507.56;;;13.83;100.00
52469;BME280;38381;53.688;10.776;2022-09-09T03:14:05;100516.22;;;13.88;100.00
52469;BME280;38381;53.688;10.776;2022-09-09T03:19:06;100520.66;;;13.79;100.00
52469;BME280;38381;53.688;10.776;2022-09-09T03:24:07;100513.50;;;13.98;100.00
52469;BME280;38381;53.688;10.776;2022-09-09T03:29:07;100510.03;;;13.97;100.00
52469;BME280;38381;53.688;10.776;2022-09-09T03:34:07;100511.81;;;13.95;100.00
52469;BME280;38381;53.688;10.776;2022-09-09T03:39:08;100506.53;;;13.98;100.00
52469;BME280;38381;53.688;10.776;2022-09-09T03:44:08;100504.69;;;14.06;100.00
52469;BME280;38381;53.688;10.776;2022-09-09T03:49:08;100516.94;;;14.00;100.00
52469;BME280;38381;53.688;10.776;2022-09-09T03:54:10;100524.81;;;13.97;100.00
52469;BME280;38381;53.688;10.776;2022-09-09T03:59:10;100509.13;;;13.98;100.00
52469;BME280;38381;53.688;10.776;2022-09-09T04:04:10;100521.31;;;13.99;100.00
52469;BME280;38381;53.688;10.776;2022-09-09T04:09:12;100527.59;;;13.80;100.00
52469;BME280;38381;53.688;10.776;2022-09-09T04:14:12;100523.13;;;13.93;100.00
52469;BME280;38381;53.688;10.776;2022-09-09T04:19:13;100524.84;;;13.94;100.00
52469;BME280;38381;53.688;10.776;2022-09-09T04:24:13;100524.00;;;13.90;100.00
52469;BME280;38381;53.688;10.776;2022-09-09T04:29:16;100518.00;;;13.86;100.00
52469;BME280;38381;53.688;10.776;2022-09-09T04:34:16;100536.25;;;13.82;100.00
52469;BME280;38381;53.688;10.776;2022-09-09T04:39:16;100532.00;;;13.76;100.00
52469;BME280;38381;53.688;10.776;2022-09-09T04:44:17;100535.34;;;13.86;100.00
52469;BME280;38381;53.688;10.776;2022-09-09T04:49:17;100544.13;;;13.80;100.00
52469;BME280;38381;53.688;10.776;2022-09-09T04:54:17;100551.97;;;13.76;100.00
52469;BME280;38381;53.688;10.776;2022-09-09T04:59:18;100550.84;;;14.00;100.00
52469;BME280;38381;53.688;10.776;2022-09-09T05:04:18;100545.66;;;13.98;100.00
52469;BME280;38381;53.688;10.776;2022-09-09T05:09:19;100545.09;;;13.70;100.00
52469;BME280;38381;53.688;10.776;2022-09-09T05:14:19;100540.72;;;13.72;100.00
52469;BME280;38381;53.688;10.776;2022-09-09T05:19:19;100545.91;;;13.75;100.00
52469;BME280;38381;53.688;10.776;2022-09-09T05:24:20;100554.47;;;13.86;100.00
52469;BME280;38381;53.688;10.776;2022-09-09T05:29:23;100551.28;;;13.57;100.00
52469;BME280;38381;53.688;10.776;2022-09-09T05:34:23;100549.53;;;13.59;100.00
52469;BME280;38381;53.688;10.776;2022-09-09T05:39:23;100553.81;;;13.64;100.00
52469;BME280;38381;53.688;10.776;2022-09-09T05:44:23;100554.81;;;13.51;100.00
52469;BME280;38381;53.688;10.776;2022-09-09T05:49:27;100553.19;;;13.38;100.00
52469;BME280;38381;53.688;10.776;2022-09-09T05:54:27;100573.13;;;13.42;100.00
52469;BME280;38381;53.688;10.776;2022-09-09T05:59:28;100571.38;;;13.41;100.00
52469;BME280;38381;53.688;10.776;2022-09-09T06:04:28;100570.56;;;13.37;100.00
52469;BME280;38381;53.688;10.776;2022-09-09T06:09:28;100586.97;;;13.48;100.00
52469;BME280;38381;53.688;10.776;2022-09-09T06:14:30;100586.84;;;13.61;100.00
52469;BME280;38381;53.688;10.776;2022-09-09T06:19:30;100587.53;;;13.80;100.00
52469;BME280;38381;53.688;10.776;2022-09-09T06:24:30;100590.84;;;13.99;100.00
52469;BME280;38381;53.688;10.776;2022-09-09T06:29:33;100594.38;;;13.92;100.00
52469;BME280;38381;53.688;10.776;2022-09-09T06:34:33;100597.78;;;14.03;100.00
52469;BME280;38381;53.688;10.776;2022-09-09T06:39:33;100599.59;;;13.95;100.00
52469;BME280;38381;53.688;10.776;2022-09-09T06:44:35;100601.47;;;13.80;100.00
52469;BME280;38381;53.688;10.776;2022-09-09T06:49:36;100606.44;;;14.02;100.00
52469;BME280;38381;53.688;10.776;2022-09-09T06:54:36;100602.88;;;14.11;100.00
52469;BME280;38381;53.688;10.776;2022-09-09T06:59:37;100601.75;;;14.35;98.98
52469;BME280;38381;53.688;10.776;2022-09-09T07:04:38;100602.59;;;14.37;98.42
52469;BME280;38381;53.688;10.776;2022-09-09T07:09:38;100605.06;;;14.47;98.85
52469;BME280;38381;53.688;10.776;2022-09-09T07:14:38;100612.03;;;14.48;98.74
52469;BME280;38381;53.688;10.776;2022-09-09T07:19:38;100614.53;;;14.58;97.74
52469;BME280;38381;53.688;10.776;2022-09-09T07:24:39;100608.38;;;14.65;97.96
52469;BME280;38381;53.688;10.776;2022-09-09T07:29:39;100610.59;;;14.94;96.39
52469;BME280;38381;53.688;10.776;2022-09-09T07:34:39;100606.19;;;14.98;95.71
52469;BME280;38381;53.688;10.776;2022-09-09T07:39:40;100604.59;;;14.87;95.94
52469;BME280;38381;53.688;10.776;2022-09-09T07:44:40;100605.38;;;14.94;96.40
52469;BME280;38381;53.688;10.776;2022-09-09T07:49:40;100616.47;;;15.08;95.20
52469;BME280;38381;53.688;10.776;2022-09-09T07:54:41;100619.19;;;15.02;96.08
52469;BME280;38381;53.688;10.776;2022-09-09T07:59:41;100619.06;;;15.12;96.53
52469;BME280;38381;53.688;10.776;2022-09-09T08:04:42;100619.56;;;15.37;97.64
52469;BME280;38381;53.688;10.776;2022-09-09T08:09:42;100619.91;;;15.68;93.23
52469;BME280;38381;53.688;10.776;2022-09-09T08:14:43;100622.59;;;15.65;93.63
52469;BME280;38381;53.688;10.776;2022-09-09T08:19:44;100636.34;;;15.78;93.46
52469;BME280;38381;53.688;10.776;2022-09-09T08:24:44;100632.13;;;15.66;92.63
52469;BME280;38381;53.688;10.776;2022-09-09T08:29:44;100643.63;;;15.56;92.53
52469;BME280;38381;53.688;10.776;2022-09-09T08:34:45;100640.38;;;15.43;92.98
52469;BME280;38381;53.688;10.776;2022-09-09T08:39:45;100651.47;;;15.56;92.99
52469;BME280;38381;53.688;10.776;2022-09-09T08:55:28;100654.53;;;15.84;91.26
52469;BME280;38381;53.688;10.776;2022-09-09T09:00:42;100648.75;;;16.16;89.82
52469;BME280;38381;53.688;10.776;2022-09-09T09:05:52;100662.00;;;16.05;90.01
52469;BME280;38381;53.688;10.776;2022-09-09T09:10:57;100658.09;;;16.28;89.84
52469;BME280;38381;53.688;10.776;2022-09-09T09:16:10;100657.81;;;16.45;88.91
52469;BME280;38381;53.688;10.776;2022-09-09T09:21:21;100657.56;;;16.57;89.27
52469;BME280;38381;53.688;10.776;2022-09-09T09:26:30;100663.03;;;16.45;88.53
52469;BME280;38381;53.688;10.776;2022-09-09T09:31:32;100668.66;;;16.68;88.32
52469;BME280;38381;53.688;10.776;2022-09-09T09:36:42;100666.28;;;17.00;88.02
52469;BME280;38381;53.688;10.776;2022-09-09T09:41:44;100662.53;;;17.12;87.16
52469;BME280;38381;53.688;10.776;2022-09-09T09:46:45;100659.19;;;17.06;87.88
52469;BME280;38381;53.688;10.776;2022-09-09T09:51:46;100665.03;;;16.76;87.31
52469;BME280;38381;53.688;10.776;2022-09-09T09:56:47;100659.31;;;17.00;87.01
52469;BME280;38381;53.688;10.776;2022-09-09T10:01:47;100662.75;;;17.02;86.36
52469;BME280;38381;53.688;10.776;2022-09-09T10:06:48;100671.72;;;16.92;86.90
52469;BME280;38381;53.688;10.776;2022-09-09T10:17:40;100667.00;;;17.84;83.25
52469;BME280;38381;53.688;10.776;2022-09-09T10:22:47;100656.25;;;18.26;81.58
52469;BME280;38381;53.688;10.776;2022-09-09T10:33:37;100661.16;;;18.70;77.85
52469;BME280;38381;53.688;10.776;2022-09-09T10:38:44;100655.13;;;18.99;76.44
52469;BME280;38381;53.688;10.776;2022-09-09T10:59:39;100653.34;;;19.28;72.64
52469;BME280;38381;53.688;10.776;2022-09-09T11:04:52;100647.19;;;19.56;74.29
52469;BME280;38381;53.688;10.776;2022-09-09T11:09:58;100645.78;;;19.45;72.95
52469;BME280;38381;53.688;10.776;2022-09-09T11:15:08;100651.28;;;19.64;72.79
52469;BME280;38381;53.688;10.776;2022-09-09T11:20:14;100645.50;;;19.55;72.92
52469;BME280;38381;53.688;10.776;2022-09-09T11:25:16;100651.06;;;19.44;72.08
52469;BME280;38381;53.688;10.776;2022-09-09T11:30:20;100658.31;;;19.37;72.35
52469;BME280;38381;53.688;10.776;2022-09-09T11:35:32;100651.19;;;19.67;70.91
52469;BME280;38381;53.688;10.776;2022-09-09T11:40:34;100657.34;;;19.66;70.96
52469;BME280;38381;53.688;10.776;2022-09-09T11:45:35;100654.69;;;19.95;70.77
52469;BME280;38381;53.688;10.776;2022-09-09T11:50:37;100652.81;;;19.73;72.31
52469;BME280;38381;53.688;10.776;2022-09-09T11:55:37;100656.22;;;20.02;71.27
52469;BME280;38381;53.688;10.776;2022-09-09T12:00:39;100662.53;;;19.43;69.87
52469;BME280;38381;53.688;10.776;2022-09-09T12:05:45;100659.44;;;19.57;70.65
52469;BME280;38381;53.688;10.776;2022-09-09T12:10:57;100653.81;;;19.96;69.75
52469;BME280;38381;53.688;10.776;2022-09-09T12:16:00;100650.16;;;20.25;67.09
52469;BME280;38381;53.688;10.776;2022-09-09T12:21:34;100654.16;;;20.35;65.97
52469;BME280;38381;53.688;10.776;2022-09-09T12:26:58;100650.41;;;20.17;67.14
52469;BME280;38381;53.688;10.776;2022-09-09T12:32:16;100661.16;;;20.11;68.45
52469;BME280;38381;53.688;10.776;2022-09-09T12:37:37;100660.25;;;20.12;65.76
52469;BME280;38381;53.688;10.776;2022-09-09T12:42:40;100654.19;;;20.10;66.60
52469;BME280;38381;53.688;10.776;2022-09-09T12:47:41;100652.78;;;20.00;65.74
52469;BME280;38381;53.688;10.776;2022-09-09T12:52:44;100640.91;;;20.13;66.40
52469;BME280;38381;53.688;10.776;2022-09-09T12:57:45;100641.38;;;19.99;66.80
52469;BME280;38381;53.688;10.776;2022-09-09T13:02:55;100638.31;;;19.86;65.06
52469;BME280;38381;53.688;10.776;2022-09-09T13:08:14;100636.28;;;19.95;64.54
52469;BME280;38381;53.688;10.776;2022-09-09T13:13:17;100640.13;;;20.09;64.33
52469;BME280;38381;53.688;10.776;2022-09-09T13:18:45;100653.91;;;19.93;65.72
52469;BME280;38381;53.688;10.776;2022-09-09T13:23:49;100657.97;;;19.76;67.57
52469;BME280;38381;53.688;10.776;2022-09-09T13:28:50;100651.66;;;20.07;67.96
52469;BME280;38381;53.688;10.776;2022-09-09T13:33:53;100652.56;;;20.06;68.98
52469;BME280;38381;53.688;10.776;2022-09-09T13:38:56;100662.13;;;19.83;70.15
52469;BME280;38381;53.688;10.776;2022-09-09T13:43:57;100661.13;;;19.59;71.36
52469;BME280;38381;53.688;10.776;2022-09-09T13:49:16;100665.38;;;19.35;72.64
52469;BME280;38381;53.688;10.776;2022-09-09T13:54:19;100665.00;;;19.47;73.19
52469;BME280;38381;53.688;10.776;2022-09-09T13:59:20;100663.38;;;19.15;75.36
52469;BME280;38381;53.688;10.776;2022-09-09T14:04:21;100657.22;;;18.86;77.38
52469;BME280;38381;53.688;10.776;2022-09-09T14:09:21;100665.72;;;18.65;79.92
52469;BME280;38381;53.688;10.776;2022-09-09T14:14:22;100665.25;;;18.82;80.61
52469;BME280;38381;53.688;10.776;2022-09-09T14:19:22;100663.25;;;18.27;81.27
52469;BME280;38381;53.688;10.776;2022-09-09T14:24:22;100661.63;;;18.55;80.46
52469;BME280;38381;53.688;10.776;2022-09-09T14:29:23;100667.53;;;18.32;81.26
52469;BME280;38381;53.688;10.776;2022-09-09T14:34:25;100672.97;;;17.89;82.09
52469;BME280;38381;53.688;10.776;2022-09-09T14:39:25;100689.47;;;17.95;80.60
52469;BME280;38381;53.688;10.776;2022-09-09T14:44:26;100691.34;;;17.89;81.11
52469;BME280;38381;53.688;10.776;2022-09-09T14:49:26;100686.66;;;17.65;82.86
52469;BME280;38381;53.688;10.776;2022-09-09T14:54:26;100692.03;;;17.60;84.25
52469;BME280;38381;53.688;10.776;2022-09-09T14:59:28;100699.03;;;17.60;85.18
52469;BME280;38381;53.688;10.776;2022-09-09T15:04:28;100691.72;;;17.73;85.47
52469;BME280;38381;53.688;10.776;2022-09-09T15:09:28;100695.06;;;17.43;87.29
52469;BME280;38381;53.688;10.776;2022-09-09T15:14:29;100681.06;;;17.43;86.48
52469;BME280;38381;53.688;10.776;2022-09-09T15:19:30;100661.09;;;17.73;84.25
52469;BME280;38381;53.688;10.776;2022-09-09T15:24:32;100665.38;;;17.41;86.38
52469;BME280;38381;53.688;10.776;2022-09-09T15:29:33;100674.41;;;17.28;88.99
52469;BME280;38381;53.688;10.776;2022-09-09T15:34:33;100662.06;;;17.33;88.42
52469;BME280;38381;53.688;10.776;2022-09-09T15:39:33;100656.84;;;17.69;87.32
52469;BME280;38381;53.688;10.776;2022-09-09T15:44:41;100651.16;;;17.52;86.67
52469;BME280;38381;53.688;10.776;2022-09-09T15:49:42;100655.06;;;17.34;88.63
52469;BME280;38381;53.688;10.776;2022-09-09T15:54:42;100637.28;;;17.46;87.99
52469;BME280;38381;53.688;10.776;2022-09-09T15:59:43;100634.44;;;17.18;90.21
52469;BME280;38381;53.688;10.776;2022-09-09T16:04:45;100634.16;;;16.92;92.82
52469;BME280;38381;53.688;10.776;2022-09-09T16:09:45;100631.06;;;17.13;90.87
52469;BME280;38381;53.688;10.776;2022-09-09T16:14:45;100626.41;;;16.87;92.47
52469;BME280;38381;53.688;10.776;2022-09-09T16:19:46;100620.53;;;16.74;93.46
52469;BME280;38381;53.688;10.776;2022-09-09T16:24:46;100618.88;;;16.70;93.47
52469;BME280;38381;53.688;10.776;2022-09-09T16:29:47;100623.31;;;16.66;93.92
52469;BME280;38381;53.688;10.776;2022-09-09T16:34:47;100631.81;;;16.78;92.51
52469;BME280;38381;53.688;10.776;2022-09-09T16:39:47;100626.75;;;16.70;92.23
52469;BME280;38381;53.688;10.776;2022-09-09T16:44:48;100626.63;;;16.75;91.50
52469;BME280;38381;53.688;10.776;2022-09-09T16:49:50;100618.88;;;16.70;90.59
52469;BME280;38381;53.688;10.776;2022-09-09T16:54:50;100629.59;;;16.59;91.11
52469;BME280;38381;53.688;10.776;2022-09-09T16:59:50;100633.16;;;16.55;90.75
52469;BME280;38381;53.688;10.776;2022-09-09T17:04:54;100642.00;;;16.49;90.95
52469;BME280;38381;53.688;10.776;2022-09-09T17:09:54;100642.22;;;16.39;91.49
52469;BME280;38381;53.688;10.776;2022-09-09T17:14:54;100641.44;;;16.34;90.71
52469;BME280;38381;53.688;10.776;2022-09-09T17:19:55;100645.69;;;16.39;89.79
52469;BME280;38381;53.688;10.776;2022-09-09T17:24:56;100643.69;;;16.05;91.89
52469;BME280;38381;53.688;10.776;2022-09-09T17:29:56;100647.00;;;16.15;91.55
52469;BME280;38381;53.688;10.776;2022-09-09T17:34:57;100655.59;;;16.23;90.92
52469;BME280;38381;53.688;10.776;2022-09-09T17:39:57;100656.28;;;16.32;90.44
52469;BME280;38381;53.688;10.776;2022-09-09T17:44:58;100648.31;;;16.38;89.75
52469;BME280;38381;53.688;10.776;2022-09-09T17:49:58;100659.75;;;16.34;89.79
52469;BME280;38381;53.688;10.776;2022-09-09T17:54:58;100665.88;;;16.33;89.29
52469;BME280;38381;53.688;10.776;2022-09-09T17:59:59;100672.84;;;16.34;88.72
52469;BME280;38381;53.688;10.776;2022-09-09T18:05:00;100679.00;;;16.31;88.76
52469;BME280;38381;53.688;10.776;2022-09-09T18:10:02;100683.41;;;16.27;88.73
52469;BME280;38381;53.688;10.776;2022-09-09T18:15:02;100690.50;;;16.22;88.66
52469;BME280;38381;53.688;10.776;2022-09-09T18:20:04;100701.09;;;16.16;88.34
52469;BME280;38381;53.688;10.776;2022-09-09T18:25:05;100714.19;;;16.15;88.31
52469;BME280;38381;53.688;10.776;2022-09-09T18:30:06;100723.00;;;16.09;88.26
52469;BME280;38381;53.688;10.776;2022-09-09T18:35:06;100739.69;;;16.02;88.27
52469;BME280;38381;53.688;10.776;2022-09-09T18:40:07;100738.06;;;15.95;88.64
52469;BME280;38381;53.688;10.776;2022-09-09T18:45:07;100729.44;;;15.89;87.87
52469;BME280;38381;53.688;10.776;2022-09-09T18:50:08;100732.97;;;15.85;87.86
52469;BME280;38381;53.688;10.776;2022-09-09T18:55:08;100729.53;;;15.82;88.05
52469;BME280;38381;53.688;10.776;2022-09-09T19:00:09;100735.72;;;15.78;87.63
52469;BME280;38381;53.688;10.776;2022-09-09T19:05:11;100734.06;;;15.69;87.58
52469;BME280;38381;53.688;10.776;2022-09-09T19:10:11;100728.13;;;15.56;87.71
52469;BME280;38381;53.688;10.776;2022-09-09T19:15:11;100735.22;;;15.49;88.39
52469;BME280;38381;53.688;10.776;2022-09-09T19:20:12;100730.94;;;15.44;88.81
52469;BME280;38381;53.688;10.776;2022-09-09T19:25:12;100730.16;;;15.39;88.46
52469;BME280;38381;53.688;10.776;2022-09-09T19:30:12;100731.06;;;15.35;88.21
52469;BME280;38381;53.688;10.776;2022-09-09T19:35:12;100736.44;;;15.24;87.76
52469;BME280;38381;53.688;10.776;2022-09-09T19:40:13;100756.53;;;15.19;87.69
52469;BME280;38381;53.688;10.776;2022-09-09T19:45:13;100760.13;;;15.12;88.14
52469;BME280;38381;53.688;10.776;2022-09-09T19:50:13;100768.91;;;15.04;87.86
52469;BME280;38381;53.688;10.776;2022-09-09T19:55:14;100760.25;;;14.99;87.28
52469;BME280;38381;53.688;10.776;2022-09-09T20:00:17;100758.53;;;14.97;87.30
52469;BME280;38381;53.688;10.776;2022-09-09T20:05:18;100748.22;;;14.86;87.78
52469;BME280;38381;53.688;10.776;2022-09-09T20:10:18;100748.34;;;14.74;87.97
52469;BME280;38381;53.688;10.776;2022-09-09T20:15:19;100753.78;;;14.51;88.85
52469;BME280;38381;53.688;10.776;2022-09-09T20:20:20;100747.69;;;14.52;89.05
52469;BME280;38381;53.688;10.776;2022-09-09T20:25:20;100753.84;;;14.46;88.64
52469;BME280;38381;53.688;10.776;2022-09-09T20:30:23;100758.22;;;14.42;88.48
52469;BME280;38381;53.688;10.776;2022-09-09T20:35:24;100760.88;;;14.35;88.32
52469;BME280;38381;53.688;10.776;2022-09-09T20:40:24;100771.38;;;14.30;88.01
52469;BME280;38381;53.688;10.776;2022-09-09T20:45:24;100767.06;;;14.23;87.51
52469;BME280;38381;53.688;10.776;2022-09-09T20:50:24;100757.59;;;14.17;87.58
52469;BME280;38381;53.688;10.776;2022-09-09T20:55:24;100748.91;;;14.11;87.80
52469;BME280;38381;53.688;10.776;2022-09-09T21:00:25;100756.78;;;14.04;87.35
52469;BME280;38381;53.688;10.776;2022-09-09T21:05:25;100764.69;;;13.97;87.16
52469;BME280;38381;53.688;10.776;2022-09-09T21:10:27;100756.94;;;13.86;87.22
52469;BME280;38381;53.688;10.776;2022-09-09T21:15:28;100745.69;;;13.79;87.84
52469;BME280;38381;53.688;10.776;2022-09-09T21:20:28;100743.97;;;13.75;87.30
52469;BME280;38381;53.688;10.776;2022-09-09T21:25:28;100745.78;;;13.68;87.17
52469;BME280;38381;53.688;10.776;2022-09-09T21:30:29;100749.31;;;13.60;87.87
52469;BME280;38381;53.688;10.776;2022-09-09T21:35:33;100748.47;;;13.56;87.83
52469;BME280;38381;53.688;10.776;2022-09-09T21:40:37;100751.09;;;13.52;87.54
52469;BME280;38381;53.688;10.776;2022-09-09T21:45:39;100750.25;;;13.45;88.12
52469;BME280;38381;53.688;10.776;2022-09-09T21:50:42;100758.97;;;13.39;88.00
52469;BME280;38381;53.688;10.776;2022-09-09T21:55:42;100765.97;;;13.31;89.03
52469;BME280;38381;53.688;10.776;2022-09-09T22:00:46;100760.75;;;13.25;88.74
52469;BME280;38381;53.688;10.776;2022-09-09T22:05:46;100765.09;;;13.23;88.98
52469;BME280;38381;53.688;10.776;2022-09-09T22:10:47;100796.31;;;13.40;88.32
52469;BME280;38381;53.688;10.776;2022-09-09T22:15:47;100797.25;;;13.17;92.83
52469;BME280;38381;53.688;10.776;2022-09-09T22:20:47;100794.66;;;13.13;93.95
52469;BME280;38381;53.688;10.776;2022-09-09T22:25:48;100791.22;;;13.04;94.76
52469;BME280;38381;53.688;10.776;2022-09-09T22:30:49;100790.38;;;12.88;96.10
52469;BME280;38381;53.688;10.776;2022-09-09T22:35:49;100796.47;;;12.92;95.49
52469;BME280;38381;53.688;10.776;2022-09-09T22:40:49;100787.75;;;12.93;96.11
52469;BME280;38381;53.688;10.776;2022-09-09T22:45:50;100795.59;;;12.88;96.91
52469;BME280;38381;53.688;10.776;2022-09-09T22:50:51;100789.44;;;13.08;96.06
52469;BME280;38381;53.688;10.776;2022-09-09T22:56:00;100798.13;;;13.13;95.73
52469;BME280;38381;53.688;10.776;2022-09-09T23:01:11;100785.94;;;13.23;95.51
52469;BME280;38381;53.688;10.776;2022-09-09T23:06:19;100775.50;;;13.31;94.86
52469;BME280;38381;53.688;10.776;2022-09-09T23:11:21;100770.28;;;13.31;94.84
52469;BME280;38381;53.688;10.776;2022-09-09T23:16:26;100765.94;;;13.36;94.47
52469;BME280;38381;53.688;10.776;2022-09-09T23:21:28;100745.09;;;13.36;94.37
52469;BME280;38381;53.688;10.776;2022-09-09T23:26:29;100740.75;;;13.39;94.85
52469;BME280;38381;53.688;10.776;2022-09-09T23:31:32;100746.78;;;13.43;95.46
52469;BME280;38381;53.688;10.776;2022-09-09T23:36:33;100740.69;;;13.50;95.18
52469;BME280;38381;53.688;10.776;2022-09-09T23:41:35;100739.78;;;13.51;95.45
52469;BME280;38381;53.688;10.776;2022-09-09T23:46:35;100739.78;;;13.54;94.62
52469;BME280;38381;53.688;10.776;2022-09-09T23:51:36;100742.38;;;13.56;95.25
52469;BME280;38381;53.688;10.776;2022-09-09T23:56:39;100745.84;;;13.56;94.70
